sensor_id;sensor_type;location;lat;lon;timestamp;P1;durP1;ratioP1;P2;durP2;ratioP2
53411;SDS011;39307;52.870;13.660;2023-08-08T00:01:47;6.35;;;2.53;;
53411;SDS011;39307;52.870;13.660;2023-08-08T00:04:13;8.18;;;2.55;;
53411;SDS011;39307;52.870;13.660;2023-08-08T00:06:39;7.97;;;2.10;;
53411;SDS011;39307;52.870;13.660;2023-08-08T00:09:05;8.20;;;2.40;;
53411;SDS011;39307;52.870;13.660;2023-08-08T00:11:32;5.47;;;2.00;;
53411;SDS011;39307;52.870;13.660;2023-08-08T00:13:58;6.82;;;2.38;;
53411;SDS011;39307;52.870;13.660;2023-08-08T00:16:24;7.43;;;2.05;;
53411;SDS011;39307;52.870;13.660;2023-08-08T00:18:50;6.50;;;2.13;;
53411;SDS011;39307;52.870;13.660;2023-08-08T00:21:16;8.35;;;2.28;;
53411;SDS011;39307;52.870;13.660;2023-08-08T00:23:43;6.72;;;2.22;;
53411;SDS011;39307;52.870;13.660;2023-08-08T00:26:09;8.77;;;2.17;;
53411;SDS011;39307;52.870;13.660;2023-08-08T00:28:35;7.45;;;2.50;;
53411;SDS011;39307;52.870;13.660;2023-08-08T00:31:01;6.68;;;2.10;;
53411;SDS011;39307;52.870;13.660;2023-08-08T00:33:28;7.25;;;2.40;;
53411;SDS011;39307;52.870;13.660;2023-08-08T00:35:57;7.80;;;2.40;;
53411;SDS011;39307;52.870;13.660;2023-08-08T00:38:23;5.32;;;2.15;;
53411;SDS011;39307;52.870;13.660;2023-08-08T00:40:49;5.97;;;2.35;;
53411;SDS011;39307;52.870;13.660;2023-08-08T00:43:15;6.88;;;1.70;;
53411;SDS011;39307;52.870;13.660;2023-08-08T00:45:42;7.80;;;2.30;;
53411;SDS011;39307;52.870;13.660;2023-08-08T00:48:10;6.35;;;2.08;;
53411;SDS011;39307;52.870;13.660;2023-08-08T00:50:36;8.33;;;2.20;;
53411;SDS011;39307;52.870;13.660;2023-08-08T00:53:04;5.97;;;2.22;;
53411;SDS011;39307;52.870;13.660;2023-08-08T00:55:30;5.93;;;2.00;;
53411;SDS011;39307;52.870;13.660;2023-08-08T00:57:57;6.68;;;1.88;;
53411;SDS011;39307;52.870;13.660;2023-08-08T01:00:23;6.40;;;2.30;;
53411;SDS011;39307;52.870;13.660;2023-08-08T01:02:49;5.83;;;1.77;;
53411;SDS011;39307;52.870;13.660;2023-08-08T01:05:16;6.83;;;1.90;;
53411;SDS011;39307;52.870;13.660;2023-08-08T01:07:52;5.95;;;2.00;;
53411;SDS011;39307;52.870;13.660;2023-08-08T01:10:26;5.53;;;1.67;;
53411;SDS011;39307;52.870;13.660;2023-08-08T01:13:25;7.87;;;2.30;;
53411;SDS011;39307;52.870;13.660;2023-08-08T01:15:51;6.50;;;2.08;;
53411;SDS011;39307;52.870;13.660;2023-08-08T01:18:20;8.82;;;2.30;;
53411;SDS011;39307;52.870;13.660;2023-08-08T01:20:47;7.15;;;2.00;;
53411;SDS011;39307;52.870;13.660;2023-08-08T01:25:52;7.10;;;2.13;;
53411;SDS011;39307;52.870;13.660;2023-08-08T01:28:22;7.43;;;2.28;;
53411;SDS011;39307;52.870;13.660;2023-08-08T01:30:49;6.43;;;2.00;;
53411;SDS011;39307;52.870;13.660;2023-08-08T01:33:16;5.07;;;1.90;;
53411;SDS011;39307;52.870;13.660;2023-08-08T01:35:43;5.22;;;1.83;;
53411;SDS011;39307;52.870;13.660;2023-08-08T01:38:21;4.38;;;1.80;;
53411;SDS011;39307;52.870;13.660;2023-08-08T01:40:55;5.82;;;1.63;;
53411;SDS011;39307;52.870;13.660;2023-08-08T01:43:23;7.88;;;2.00;;
53411;SDS011;39307;52.870;13.660;2023-08-08T01:45:50;5.53;;;1.98;;
53411;SDS011;39307;52.870;13.660;2023-08-08T01:48:17;5.68;;;1.60;;
53411;SDS011;39307;52.870;13.660;2023-08-08T01:50:44;5.22;;;1.80;;
53411;SDS011;39307;52.870;13.660;2023-08-08T01:53:10;4.83;;;1.67;;
53411;SDS011;39307;52.870;13.660;2023-08-08T01:55:37;5.18;;;1.88;;
53411;SDS011;39307;52.870;13.660;2023-08-08T01:58:03;6.45;;;2.03;;
53411;SDS011;39307;52.870;13.660;2023-08-08T02:00:29;5.38;;;1.75;;
53411;SDS011;39307;52.870;13.660;2023-08-08T02:02:56;6.03;;;1.73;;
53411;SDS011;39307;52.870;13.660;2023-08-08T02:05:22;6.90;;;1.47;;
53411;SDS011;39307;52.870;13.660;2023-08-08T02:07:48;4.73;;;1.40;;
53411;SDS011;39307;52.870;13.660;2023-08-08T02:10:14;4.97;;;1.52;;
53411;SDS011;39307;52.870;13.660;2023-08-08T02:12:41;5.68;;;1.55;;
53411;SDS011;39307;52.870;13.660;2023-08-08T02:15:07;4.32;;;1.63;;
53411;SDS011;39307;52.870;13.660;2023-08-08T02:17:33;5.28;;;1.30;;
53411;SDS011;39307;52.870;13.660;2023-08-08T02:20:00;6.00;;;1.85;;
53411;SDS011;39307;52.870;13.660;2023-08-08T02:22:26;3.60;;;1.25;;
53411;SDS011;39307;52.870;13.660;2023-08-08T02:24:52;3.38;;;1.38;;
53411;SDS011;39307;52.870;13.660;2023-08-08T02:27:18;4.22;;;1.50;;
53411;SDS011;39307;52.870;13.660;2023-08-08T02:29:44;4.95;;;1.50;;
53411;SDS011;39307;52.870;13.660;2023-08-08T02:32:11;4.20;;;1.48;;
53411;SDS011;39307;52.870;13.660;2023-08-08T02:34:37;4.30;;;1.63;;
53411;SDS011;39307;52.870;13.660;2023-08-08T02:37:04;4.90;;;1.40;;
53411;SDS011;39307;52.870;13.660;2023-08-08T02:39:30;4.83;;;1.50;;
53411;SDS011;39307;52.870;13.660;2023-08-08T02:41:56;5.23;;;1.60;;
53411;SDS011;39307;52.870;13.660;2023-08-08T02:44:23;4.97;;;1.58;;
53411;SDS011;39307;52.870;13.660;2023-08-08T02:46:49;4.95;;;1.77;;
53411;SDS011;39307;52.870;13.660;2023-08-08T02:49:15;5.00;;;1.45;;
53411;SDS011;39307;52.870;13.660;2023-08-08T02:51:41;4.45;;;1.40;;
53411;SDS011;39307;52.870;13.660;2023-08-08T02:54:08;7.32;;;1.70;;
53411;SDS011;39307;52.870;13.660;2023-08-08T02:56:35;6.40;;;1.77;;
53411;SDS011;39307;52.870;13.660;2023-08-08T02:59:01;4.90;;;1.50;;
53411;SDS011;39307;52.870;13.660;2023-08-08T03:01:28;4.63;;;1.50;;
53411;SDS011;39307;52.870;13.660;2023-08-08T03:03:54;5.55;;;1.70;;
53411;SDS011;39307;52.870;13.660;2023-08-08T03:06:20;4.53;;;1.52;;
53411;SDS011;39307;52.870;13.660;2023-08-08T03:08:46;6.27;;;1.90;;
53411;SDS011;39307;52.870;13.660;2023-08-08T03:11:13;4.00;;;1.40;;
53411;SDS011;39307;52.870;13.660;2023-08-08T03:13:39;4.82;;;1.70;;
53411;SDS011;39307;52.870;13.660;2023-08-08T03:16:05;5.43;;;2.08;;
53411;SDS011;39307;52.870;13.660;2023-08-08T03:18:31;4.10;;;1.58;;
53411;SDS011;39307;52.870;13.660;2023-08-08T03:20:57;5.75;;;1.50;;
53411;SDS011;39307;52.870;13.660;2023-08-08T03:23:24;5.70;;;1.88;;
53411;SDS011;39307;52.870;13.660;2023-08-08T03:25:50;5.78;;;1.73;;
53411;SDS011;39307;52.870;13.660;2023-08-08T03:28:16;5.18;;;1.83;;
53411;SDS011;39307;52.870;13.660;2023-08-08T03:30:42;5.10;;;1.70;;
53411;SDS011;39307;52.870;13.660;2023-08-08T03:33:09;4.78;;;1.92;;
53411;SDS011;39307;52.870;13.660;2023-08-08T03:35:35;6.85;;;2.10;;
53411;SDS011;39307;52.870;13.660;2023-08-08T03:38:01;5.35;;;1.92;;
53411;SDS011;39307;52.870;13.660;2023-08-08T03:40:27;5.68;;;1.75;;
53411;SDS011;39307;52.870;13.660;2023-08-08T03:42:54;5.15;;;1.70;;
53411;SDS011;39307;52.870;13.660;2023-08-08T03:45:20;5.53;;;2.20;;
53411;SDS011;39307;52.870;13.660;2023-08-08T03:47:46;5.18;;;2.00;;
53411;SDS011;39307;52.870;13.660;2023-08-08T03:50:12;4.47;;;1.57;;
53411;SDS011;39307;52.870;13.660;2023-08-08T03:52:38;4.57;;;1.90;;
53411;SDS011;39307;52.870;13.660;2023-08-08T03:55:05;6.25;;;2.13;;
53411;SDS011;39307;52.870;13.660;2023-08-08T03:57:31;5.77;;;1.97;;
53411;SDS011;39307;52.870;13.660;2023-08-08T03:59:57;6.20;;;2.13;;
53411;SDS011;39307;52.870;13.660;2023-08-08T04:02:24;4.18;;;1.85;;
53411;SDS011;39307;52.870;13.660;2023-08-08T04:04:50;4.23;;;1.73;;
53411;SDS011;39307;52.870;13.660;2023-08-08T04:07:17;6.90;;;2.17;;
53411;SDS011;39307;52.870;13.660;2023-08-08T04:09:43;5.67;;;2.00;;
53411;SDS011;39307;52.870;13.660;2023-08-08T04:12:10;4.70;;;1.80;;
53411;SDS011;39307;52.870;13.660;2023-08-08T04:14:36;4.75;;;2.05;;
53411;SDS011;39307;52.870;13.660;2023-08-08T04:17:02;4.43;;;1.60;;
53411;SDS011;39307;52.870;13.660;2023-08-08T04:19:28;5.25;;;1.80;;
53411;SDS011;39307;52.870;13.660;2023-08-08T04:21:55;3.67;;;1.45;;
53411;SDS011;39307;52.870;13.660;2023-08-08T04:24:22;5.55;;;1.92;;
53411;SDS011;39307;52.870;13.660;2023-08-08T04:26:48;5.63;;;1.95;;
53411;SDS011;39307;52.870;13.660;2023-08-08T04:29:14;5.88;;;1.90;;
53411;SDS011;39307;52.870;13.660;2023-08-08T04:31:41;6.45;;;2.00;;
53411;SDS011;39307;52.870;13.660;2023-08-08T04:34:07;5.00;;;1.80;;
53411;SDS011;39307;52.870;13.660;2023-08-08T04:36:33;4.72;;;1.70;;
53411;SDS011;39307;52.870;13.660;2023-08-08T04:38:59;5.63;;;2.00;;
53411;SDS011;39307;52.870;13.660;2023-08-08T04:41:26;5.68;;;1.98;;
53411;SDS011;39307;52.870;13.660;2023-08-08T04:43:52;3.58;;;1.70;;
53411;SDS011;39307;52.870;13.660;2023-08-08T04:46:18;6.60;;;2.00;;
53411;SDS011;39307;52.870;13.660;2023-08-08T04:48:44;5.10;;;1.83;;
53411;SDS011;39307;52.870;13.660;2023-08-08T04:51:11;5.17;;;1.60;;
53411;SDS011;39307;52.870;13.660;2023-08-08T04:53:37;6.57;;;2.03;;
53411;SDS011;39307;52.870;13.660;2023-08-08T04:56:03;5.35;;;2.00;;
53411;SDS011;39307;52.870;13.660;2023-08-08T04:58:30;4.57;;;1.88;;
53411;SDS011;39307;52.870;13.660;2023-08-08T05:00:56;4.20;;;1.70;;
53411;SDS011;39307;52.870;13.660;2023-08-08T05:03:23;5.13;;;2.03;;
53411;SDS011;39307;52.870;13.660;2023-08-08T05:05:49;5.30;;;2.03;;
53411;SDS011;39307;52.870;13.660;2023-08-08T05:08:15;5.15;;;1.92;;
53411;SDS011;39307;52.870;13.660;2023-08-08T05:10:42;4.40;;;1.60;;
53411;SDS011;39307;52.870;13.660;2023-08-08T05:13:09;4.30;;;1.80;;
53411;SDS011;39307;52.870;13.660;2023-08-08T05:15:35;7.38;;;2.10;;
53411;SDS011;39307;52.870;13.660;2023-08-08T05:18:01;4.55;;;2.00;;
53411;SDS011;39307;52.870;13.660;2023-08-08T05:20:27;3.13;;;1.63;;
53411;SDS011;39307;52.870;13.660;2023-08-08T05:22:54;5.43;;;1.88;;
53411;SDS011;39307;52.870;13.660;2023-08-08T05:25:20;5.03;;;1.90;;
53411;SDS011;39307;52.870;13.660;2023-08-08T05:27:46;5.90;;;2.00;;
53411;SDS011;39307;52.870;13.660;2023-08-08T05:30:12;6.85;;;1.95;;
53411;SDS011;39307;52.870;13.660;2023-08-08T05:32:39;4.60;;;1.73;;
53411;SDS011;39307;52.870;13.660;2023-08-08T05:35:05;4.27;;;1.87;;
53411;SDS011;39307;52.870;13.660;2023-08-08T05:37:32;4.85;;;1.67;;
53411;SDS011;39307;52.870;13.660;2023-08-08T05:39:58;5.85;;;1.88;;
53411;SDS011;39307;52.870;13.660;2023-08-08T05:42:24;7.22;;;2.05;;
53411;SDS011;39307;52.870;13.660;2023-08-08T05:44:50;5.80;;;2.10;;
53411;SDS011;39307;52.870;13.660;2023-08-08T05:47:17;5.40;;;1.90;;
53411;SDS011;39307;52.870;13.660;2023-08-08T05:49:43;4.55;;;1.83;;
53411;SDS011;39307;52.870;13.660;2023-08-08T05:52:09;4.47;;;1.73;;
53411;SDS011;39307;52.870;13.660;2023-08-08T05:54:36;5.30;;;1.77;;
53411;SDS011;39307;52.870;13.660;2023-08-08T05:57:02;5.33;;;1.70;;
53411;SDS011;39307;52.870;13.660;2023-08-08T05:59:28;4.22;;;1.80;;
53411;SDS011;39307;52.870;13.660;2023-08-08T06:01:55;5.45;;;1.95;;
53411;SDS011;39307;52.870;13.660;2023-08-08T06:04:21;4.18;;;1.70;;
53411;SDS011;39307;52.870;13.660;2023-08-08T06:06:47;5.90;;;1.70;;
53411;SDS011;39307;52.870;13.660;2023-08-08T06:09:14;5.55;;;1.80;;
53411;SDS011;39307;52.870;13.660;2023-08-08T06:11:40;5.82;;;1.90;;
53411;SDS011;39307;52.870;13.660;2023-08-08T06:14:07;6.25;;;1.88;;
53411;SDS011;39307;52.870;13.660;2023-08-08T06:16:33;7.65;;;1.77;;
53411;SDS011;39307;52.870;13.660;2023-08-08T06:18:59;5.68;;;1.77;;
53411;SDS011;39307;52.870;13.660;2023-08-08T06:21:26;4.17;;;1.80;;
53411;SDS011;39307;52.870;13.660;2023-08-08T06:23:52;4.77;;;1.87;;
53411;SDS011;39307;52.870;13.660;2023-08-08T06:26:18;5.93;;;1.67;;
53411;SDS011;39307;52.870;13.660;2023-08-08T06:28:44;4.50;;;1.60;;
53411;SDS011;39307;52.870;13.660;2023-08-08T06:31:11;3.83;;;1.50;;
53411;SDS011;39307;52.870;13.660;2023-08-08T06:33:37;8.20;;;2.17;;
53411;SDS011;39307;52.870;13.660;2023-08-08T06:36:03;4.88;;;1.60;;
53411;SDS011;39307;52.870;13.660;2023-08-08T06:38:30;5.53;;;1.70;;
53411;SDS011;39307;52.870;13.660;2023-08-08T06:40:57;4.22;;;1.70;;
53411;SDS011;39307;52.870;13.660;2023-08-08T06:43:23;4.53;;;1.73;;
53411;SDS011;39307;52.870;13.660;2023-08-08T06:45:49;5.63;;;1.88;;
53411;SDS011;39307;52.870;13.660;2023-08-08T06:48:15;4.10;;;1.40;;
53411;SDS011;39307;52.870;13.660;2023-08-08T06:50:41;4.57;;;1.50;;
53411;SDS011;39307;52.870;13.660;2023-08-08T06:53:07;5.90;;;1.90;;
53411;SDS011;39307;52.870;13.660;2023-08-08T06:55:34;4.20;;;1.52;;
53411;SDS011;39307;52.870;13.660;2023-08-08T06:58:00;4.45;;;1.83;;
53411;SDS011;39307;52.870;13.660;2023-08-08T07:00:26;5.07;;;1.70;;
53411;SDS011;39307;52.870;13.660;2023-08-08T07:02:53;6.32;;;1.73;;
53411;SDS011;39307;52.870;13.660;2023-08-08T07:05:19;4.90;;;1.63;;
53411;SDS011;39307;52.870;13.660;2023-08-08T07:07:45;3.93;;;1.57;;
53411;SDS011;39307;52.870;13.660;2023-08-08T07:10:12;4.87;;;1.60;;
53411;SDS011;39307;52.870;13.660;2023-08-08T07:12:39;5.10;;;1.70;;
53411;SDS011;39307;52.870;13.660;2023-08-08T07:15:06;3.20;;;1.35;;
53411;SDS011;39307;52.870;13.660;2023-08-08T07:17:33;3.88;;;1.48;;
53411;SDS011;39307;52.870;13.660;2023-08-08T07:19:59;5.03;;;1.58;;
53411;SDS011;39307;52.870;13.660;2023-08-08T07:22:25;4.35;;;1.50;;
53411;SDS011;39307;52.870;13.660;2023-08-08T07:24:51;3.53;;;1.40;;
53411;SDS011;39307;52.870;13.660;2023-08-08T07:27:17;3.30;;;1.42;;
53411;SDS011;39307;52.870;13.660;2023-08-08T07:29:44;4.60;;;1.60;;
53411;SDS011;39307;52.870;13.660;2023-08-08T07:32:10;3.75;;;1.40;;
53411;SDS011;39307;52.870;13.660;2023-08-08T07:34:36;3.70;;;1.35;;
53411;SDS011;39307;52.870;13.660;2023-08-08T07:37:02;5.57;;;1.50;;
53411;SDS011;39307;52.870;13.660;2023-08-08T07:39:29;5.55;;;1.85;;
53411;SDS011;39307;52.870;13.660;2023-08-08T07:41:55;6.20;;;1.80;;
53411;SDS011;39307;52.870;13.660;2023-08-08T07:44:21;4.35;;;1.38;;
53411;SDS011;39307;52.870;13.660;2023-08-08T07:46:48;3.47;;;1.40;;
53411;SDS011;39307;52.870;13.660;2023-08-08T07:49:14;7.05;;;1.55;;
53411;SDS011;39307;52.870;13.660;2023-08-08T07:51:40;5.05;;;1.50;;
53411;SDS011;39307;52.870;13.660;2023-08-08T07:54:06;5.75;;;1.58;;
53411;SDS011;39307;52.870;13.660;2023-08-08T07:56:32;3.80;;;1.50;;
53411;SDS011;39307;52.870;13.660;2023-08-08T07:58:59;4.27;;;1.40;;
53411;SDS011;39307;52.870;13.660;2023-08-08T08:01:25;3.17;;;1.30;;
53411;SDS011;39307;52.870;13.660;2023-08-08T08:03:52;3.67;;;1.35;;
53411;SDS011;39307;52.870;13.660;2023-08-08T08:06:19;3.47;;;1.42;;
53411;SDS011;39307;52.870;13.660;2023-08-08T08:08:45;2.78;;;1.20;;
53411;SDS011;39307;52.870;13.660;2023-08-08T08:11:11;5.07;;;1.67;;
53411;SDS011;39307;52.870;13.660;2023-08-08T08:13:37;5.65;;;1.67;;
53411;SDS011;39307;52.870;13.660;2023-08-08T08:16:04;4.87;;;1.57;;
53411;SDS011;39307;52.870;13.660;2023-08-08T08:18:30;5.00;;;1.70;;
53411;SDS011;39307;52.870;13.660;2023-08-08T08:20:56;6.43;;;1.70;;
53411;SDS011;39307;52.870;13.660;2023-08-08T08:23:23;5.27;;;1.50;;
53411;SDS011;39307;52.870;13.660;2023-08-08T08:25:49;4.87;;;1.67;;
53411;SDS011;39307;52.870;13.660;2023-08-08T08:28:15;4.27;;;1.50;;
53411;SDS011;39307;52.870;13.660;2023-08-08T08:30:41;2.72;;;1.30;;
53411;SDS011;39307;52.870;13.660;2023-08-08T08:33:08;5.20;;;1.60;;
53411;SDS011;39307;52.870;13.660;2023-08-08T08:35:35;5.45;;;1.50;;
53411;SDS011;39307;52.870;13.660;2023-08-08T08:38:01;3.33;;;1.40;;
53411;SDS011;39307;52.870;13.660;2023-08-08T08:40:27;3.17;;;1.40;;
53411;SDS011;39307;52.870;13.660;2023-08-08T08:42:55;5.40;;;1.75;;
53411;SDS011;39307;52.870;13.660;2023-08-08T08:45:21;6.00;;;1.55;;
53411;SDS011;39307;52.870;13.660;2023-08-08T08:47:48;4.47;;;1.52;;
53411;SDS011;39307;52.870;13.660;2023-08-08T08:50:19;6.28;;;1.48;;
53411;SDS011;39307;52.870;13.660;2023-08-08T08:52:45;3.63;;;1.45;;
53411;SDS011;39307;52.870;13.660;2023-08-08T08:55:12;5.47;;;1.80;;
53411;SDS011;39307;52.870;13.660;2023-08-08T08:57:39;3.63;;;1.50;;
53411;SDS011;39307;52.870;13.660;2023-08-08T09:00:05;3.97;;;1.52;;
53411;SDS011;39307;52.870;13.660;2023-08-08T09:02:32;6.38;;;1.60;;
53411;SDS011;39307;52.870;13.660;2023-08-08T09:04:58;4.18;;;1.40;;
53411;SDS011;39307;52.870;13.660;2023-08-08T09:07:25;5.78;;;1.80;;
53411;SDS011;39307;52.870;13.660;2023-08-08T09:09:52;3.53;;;1.60;;
53411;SDS011;39307;52.870;13.660;2023-08-08T09:12:19;5.00;;;1.67;;
53411;SDS011;39307;52.870;13.660;2023-08-08T09:14:45;5.60;;;1.40;;
53411;SDS011;39307;52.870;13.660;2023-08-08T09:17:12;4.35;;;1.40;;
53411;SDS011;39307;52.870;13.660;2023-08-08T09:19:43;4.47;;;1.60;;
53411;SDS011;39307;52.870;13.660;2023-08-08T09:22:09;3.22;;;1.40;;
53411;SDS011;39307;52.870;13.660;2023-08-08T09:24:41;4.28;;;1.35;;
53411;SDS011;39307;52.870;13.660;2023-08-08T09:27:08;4.17;;;1.40;;
53411;SDS011;39307;52.870;13.660;2023-08-08T09:29:35;4.35;;;1.45;;
53411;SDS011;39307;52.870;13.660;2023-08-08T09:32:08;3.90;;;1.40;;
53411;SDS011;39307;52.870;13.660;2023-08-08T09:34:34;4.10;;;1.70;;
53411;SDS011;39307;52.870;13.660;2023-08-08T09:37:01;6.68;;;1.50;;
53411;SDS011;39307;52.870;13.660;2023-08-08T09:39:28;4.57;;;1.30;;
53411;SDS011;39307;52.870;13.660;2023-08-08T09:41:55;4.30;;;1.50;;
53411;SDS011;39307;52.870;13.660;2023-08-08T09:44:27;3.57;;;1.40;;
53411;SDS011;39307;52.870;13.660;2023-08-08T09:46:54;4.73;;;1.63;;
53411;SDS011;39307;52.870;13.660;2023-08-08T09:49:21;3.33;;;1.20;;
53411;SDS011;39307;52.870;13.660;2023-08-08T09:51:47;3.45;;;1.10;;
53411;SDS011;39307;52.870;13.660;2023-08-08T09:54:17;4.45;;;1.48;;
53411;SDS011;39307;52.870;13.660;2023-08-08T09:56:43;4.32;;;1.50;;
53411;SDS011;39307;52.870;13.660;2023-08-08T09:59:10;3.90;;;1.70;;
53411;SDS011;39307;52.870;13.660;2023-08-08T10:01:37;3.95;;;1.50;;
53411;SDS011;39307;52.870;13.660;2023-08-08T10:04:04;5.40;;;1.60;;
53411;SDS011;39307;52.870;13.660;2023-08-08T10:06:32;6.32;;;1.90;;
53411;SDS011;39307;52.870;13.660;2023-08-08T10:08:58;4.38;;;1.58;;
53411;SDS011;39307;52.870;13.660;2023-08-08T10:11:25;5.93;;;1.67;;
53411;SDS011;39307;52.870;13.660;2023-08-08T10:13:53;3.60;;;1.63;;
53411;SDS011;39307;52.870;13.660;2023-08-08T10:16:19;4.00;;;1.40;;
53411;SDS011;39307;52.870;13.660;2023-08-08T10:18:58;3.65;;;1.30;;
53411;SDS011;39307;52.870;13.660;2023-08-08T10:21:25;3.95;;;1.50;;
53411;SDS011;39307;52.870;13.660;2023-08-08T10:24:02;5.97;;;1.53;;
53411;SDS011;39307;52.870;13.660;2023-08-08T10:26:30;5.50;;;1.50;;
53411;SDS011;39307;52.870;13.660;2023-08-08T10:28:56;4.60;;;1.50;;
53411;SDS011;39307;52.870;13.660;2023-08-08T10:31:24;5.05;;;1.50;;
53411;SDS011;39307;52.870;13.660;2023-08-08T10:33:59;6.53;;;1.52;;
53411;SDS011;39307;52.870;13.660;2023-08-08T10:36:42;4.25;;;1.30;;
53411;SDS011;39307;52.870;13.660;2023-08-08T10:39:18;4.68;;;1.30;;
53411;SDS011;39307;52.870;13.660;2023-08-08T10:41:49;4.95;;;1.67;;
53411;SDS011;39307;52.870;13.660;2023-08-08T10:44:25;2.83;;;1.30;;
53411;SDS011;39307;52.870;13.660;2023-08-08T10:46:52;5.10;;;1.60;;
53411;SDS011;39307;52.870;13.660;2023-08-08T10:49:18;3.50;;;1.47;;
53411;SDS011;39307;52.870;13.660;2023-08-08T10:51:45;3.88;;;1.40;;
53411;SDS011;39307;52.870;13.660;2023-08-08T10:54:14;5.40;;;1.45;;
53411;SDS011;39307;52.870;13.660;2023-08-08T10:56:50;3.40;;;1.20;;
53411;SDS011;39307;52.870;13.660;2023-08-08T10:59:19;3.38;;;1.00;;
53411;SDS011;39307;52.870;13.660;2023-08-08T11:01:51;3.50;;;1.08;;
53411;SDS011;39307;52.870;13.660;2023-08-08T11:04:21;2.55;;;0.80;;
53411;SDS011;39307;52.870;13.660;2023-08-08T11:06:49;2.72;;;1.05;;
53411;SDS011;39307;52.870;13.660;2023-08-08T11:09:15;3.67;;;1.10;;
53411;SDS011;39307;52.870;13.660;2023-08-08T11:11:43;3.22;;;1.10;;
53411;SDS011;39307;52.870;13.660;2023-08-08T11:14:11;3.10;;;1.30;;
53411;SDS011;39307;52.870;13.660;2023-08-08T11:16:41;4.75;;;1.23;;
53411;SDS011;39307;52.870;13.660;2023-08-08T11:19:09;3.58;;;1.30;;
53411;SDS011;39307;52.870;13.660;2023-08-08T11:21:36;4.15;;;1.40;;
53411;SDS011;39307;52.870;13.660;2023-08-08T11:24:05;4.37;;;1.50;;
53411;SDS011;39307;52.870;13.660;2023-08-08T11:26:32;4.00;;;1.38;;
53411;SDS011;39307;52.870;13.660;2023-08-08T11:29:03;5.00;;;1.43;;
53411;SDS011;39307;52.870;13.660;2023-08-08T11:31:30;5.40;;;1.30;;
53411;SDS011;39307;52.870;13.660;2023-08-08T11:33:58;5.47;;;1.57;;
53411;SDS011;39307;52.870;13.660;2023-08-08T11:36:25;4.70;;;1.60;;
53411;SDS011;39307;52.870;13.660;2023-08-08T11:38:55;3.53;;;1.52;;
53411;SDS011;39307;52.870;13.660;2023-08-08T11:41:23;3.57;;;1.50;;
53411;SDS011;39307;52.870;13.660;2023-08-08T11:43:50;5.28;;;1.42;;
53411;SDS011;39307;52.870;13.660;2023-08-08T11:46:17;3.55;;;1.42;;
53411;SDS011;39307;52.870;13.660;2023-08-08T11:48:43;4.40;;;1.30;;
53411;SDS011;39307;52.870;13.660;2023-08-08T11:51:13;2.58;;;1.00;;
53411;SDS011;39307;52.870;13.660;2023-08-08T11:53:48;3.00;;;1.17;;
53411;SDS011;39307;52.870;13.660;2023-08-08T11:56:21;3.13;;;1.20;;
53411;SDS011;39307;52.870;13.660;2023-08-08T11:58:49;4.05;;;1.38;;
53411;SDS011;39307;52.870;13.660;2023-08-08T12:01:16;3.38;;;1.00;;
53411;SDS011;39307;52.870;13.660;2023-08-08T12:03:45;5.88;;;1.63;;
53411;SDS011;39307;52.870;13.660;2023-08-08T12:06:14;3.63;;;1.25;;
53411;SDS011;39307;52.870;13.660;2023-08-08T12:08:42;3.20;;;1.13;;
53411;SDS011;39307;52.870;13.660;2023-08-08T12:11:09;3.75;;;1.30;;
53411;SDS011;39307;52.870;13.660;2023-08-08T12:13:37;2.90;;;1.13;;
53411;SDS011;39307;52.870;13.660;2023-08-08T12:16:04;3.40;;;1.27;;
53411;SDS011;39307;52.870;13.660;2023-08-08T12:18:31;3.35;;;1.17;;
53411;SDS011;39307;52.870;13.660;2023-08-08T12:20:58;3.60;;;1.20;;
53411;SDS011;39307;52.870;13.660;2023-08-08T12:23:24;3.25;;;1.40;;
53411;SDS011;39307;52.870;13.660;2023-08-08T12:25:52;5.93;;;1.20;;
53411;SDS011;39307;52.870;13.660;2023-08-08T12:28:18;5.07;;;1.10;;
53411;SDS011;39307;52.870;13.660;2023-08-08T12:30:44;3.70;;;0.97;;
53411;SDS011;39307;52.870;13.660;2023-08-08T12:33:11;2.45;;;0.70;;
53411;SDS011;39307;52.870;13.660;2023-08-08T12:35:37;4.20;;;0.90;;
53411;SDS011;39307;52.870;13.660;2023-08-08T12:38:03;3.95;;;1.00;;
53411;SDS011;39307;52.870;13.660;2023-08-08T12:40:29;4.55;;;1.00;;
53411;SDS011;39307;52.870;13.660;2023-08-08T12:42:56;4.23;;;0.80;;
53411;SDS011;39307;52.870;13.660;2023-08-08T12:45:22;3.20;;;0.80;;
53411;SDS011;39307;52.870;13.660;2023-08-08T12:47:48;5.07;;;1.03;;
53411;SDS011;39307;52.870;13.660;2023-08-08T12:50:14;3.70;;;1.10;;
53411;SDS011;39307;52.870;13.660;2023-08-08T12:52:40;6.43;;;1.20;;
53411;SDS011;39307;52.870;13.660;2023-08-08T12:55:07;2.73;;;1.10;;
53411;SDS011;39307;52.870;13.660;2023-08-08T12:57:33;4.80;;;1.33;;
53411;SDS011;39307;52.870;13.660;2023-08-08T12:59:59;3.35;;;1.00;;
53411;SDS011;39307;52.870;13.660;2023-08-08T13:02:26;5.70;;;1.42;;
53411;SDS011;39307;52.870;13.660;2023-08-08T13:04:52;6.35;;;1.35;;
53411;SDS011;39307;52.870;13.660;2023-08-08T13:07:19;4.30;;;1.30;;
53411;SDS011;39307;52.870;13.660;2023-08-08T13:09:45;4.72;;;1.30;;
53411;SDS011;39307;52.870;13.660;2023-08-08T13:12:11;4.13;;;1.13;;
53411;SDS011;39307;52.870;13.660;2023-08-08T13:14:37;2.97;;;0.90;;
53411;SDS011;39307;52.870;13.660;2023-08-08T13:17:04;3.13;;;1.10;;
53411;SDS011;39307;52.870;13.660;2023-08-08T13:19:30;2.75;;;1.10;;
53411;SDS011;39307;52.870;13.660;2023-08-08T13:21:57;2.40;;;1.00;;
53411;SDS011;39307;52.870;13.660;2023-08-08T13:24:23;2.65;;;0.90;;
53411;SDS011;39307;52.870;13.660;2023-08-08T13:26:49;2.85;;;1.00;;
53411;SDS011;39307;52.870;13.660;2023-08-08T13:29:15;3.10;;;1.10;;
53411;SDS011;39307;52.870;13.660;2023-08-08T13:31:42;1.75;;;0.80;;
53411;SDS011;39307;52.870;13.660;2023-08-08T13:34:08;2.40;;;1.10;;
53411;SDS011;39307;52.870;13.660;2023-08-08T13:36:35;3.13;;;1.05;;
53411;SDS011;39307;52.870;13.660;2023-08-08T13:39:01;2.33;;;0.83;;
53411;SDS011;39307;52.870;13.660;2023-08-08T13:41:27;2.30;;;0.85;;
53411;SDS011;39307;52.870;13.660;2023-08-08T13:43:53;2.13;;;0.90;;
53411;SDS011;39307;52.870;13.660;2023-08-08T13:46:19;2.80;;;1.00;;
53411;SDS011;39307;52.870;13.660;2023-08-08T13:48:46;2.35;;;0.73;;
53411;SDS011;39307;52.870;13.660;2023-08-08T13:51:12;2.38;;;0.88;;
53411;SDS011;39307;52.870;13.660;2023-08-08T13:53:38;2.40;;;1.00;;
53411;SDS011;39307;52.870;13.660;2023-08-08T13:56:04;3.07;;;1.07;;
53411;SDS011;39307;52.870;13.660;2023-08-08T13:58:31;4.93;;;1.27;;
53411;SDS011;39307;52.870;13.660;2023-08-08T14:00:57;3.22;;;1.10;;
53411;SDS011;39307;52.870;13.660;2023-08-08T14:03:24;2.95;;;1.10;;
53411;SDS011;39307;52.870;13.660;2023-08-08T14:05:50;2.05;;;0.90;;
53411;SDS011;39307;52.870;13.660;2023-08-08T14:08:17;3.28;;;1.13;;
53411;SDS011;39307;52.870;13.660;2023-08-08T14:10:43;2.80;;;1.25;;
53411;SDS011;39307;52.870;13.660;2023-08-08T14:13:10;2.40;;;0.83;;
53411;SDS011;39307;52.870;13.660;2023-08-08T14:15:36;4.07;;;1.27;;
53411;SDS011;39307;52.870;13.660;2023-08-08T14:18:03;2.90;;;1.00;;
53411;SDS011;39307;52.870;13.660;2023-08-08T14:20:29;5.25;;;1.20;;
53411;SDS011;39307;52.870;13.660;2023-08-08T14:22:56;3.83;;;1.23;;
53411;SDS011;39307;52.870;13.660;2023-08-08T14:25:22;4.17;;;1.30;;
53411;SDS011;39307;52.870;13.660;2023-08-08T14:27:48;3.63;;;1.35;;
53411;SDS011;39307;52.870;13.660;2023-08-08T14:30:15;4.30;;;1.38;;
53411;SDS011;39307;52.870;13.660;2023-08-08T14:32:41;6.20;;;1.33;;
53411;SDS011;39307;52.870;13.660;2023-08-08T14:35:07;2.60;;;1.20;;